sensor_id;sensor_type;location;lat;lon;timestamp;temperature;humidity
1592;DHT22;789;51.612;7.510;2024-03-08T00:02:07;4.70;1.00
1592;DHT22;789;51.612;7.510;2024-03-08T00:04:34;4.70;1.00
1592;DHT22;789;51.612;7.510;2024-03-08T00:07:01;4.70;1.00
1592;DHT22;789;51.612;7.510;2024-03-08T00:09:28;4.60;1.00
1592;DHT22;789;51.612;7.510;2024-03-08T00:11:56;4.60;1.00
1592;DHT22;789;51.612;7.510;2024-03-08T00:14:24;4.60;1.00
1592;DHT22;789;51.612;7.510;2024-03-08T00:16:51;4.60;1.00
1592;DHT22;789;51.612;7.510;2024-03-08T00:19:18;4.60;1.00
1592;DHT22;789;51.612;7.510;2024-03-08T00:21:45;4.60;1.00
1592;DHT22;789;51.612;7.510;2024-03-08T00:24:11;4.60;1.00
1592;DHT22;789;51.612;7.510;2024-03-08T00:26:44;4.50;1.00
1592;DHT22;789;51.612;7.510;2024-03-08T00:29:11;4.60;1.00
1592;DHT22;789;51.612;7.510;2024-03-08T00:31:40;4.50;1.00
1592;DHT22;789;51.612;7.510;2024-03-08T00:34:06;4.50;1.00
1592;DHT22;789;51.612;7.510;2024-03-08T00:36:37;4.50;1.00
1592;DHT22;789;51.612;7.510;2024-03-08T00:39:04;4.50;1.00
1592;DHT22;789;51.612;7.510;2024-03-08T00:41:31;4.50;1.00
1592;DHT22;789;51.612;7.510;2024-03-08T00:43:58;4.50;1.00
1592;DHT22;789;51.612;7.510;2024-03-08T00:46:25;4.40;1.00
1592;DHT22;789;51.612;7.510;2024-03-08T00:48:55;4.40;1.00
1592;DHT22;789;51.612;7.510;2024-03-08T00:51:22;4.40;1.00
1592;DHT22;789;51.612;7.510;2024-03-08T00:53:49;4.30;1.00
1592;DHT22;789;51.612;7.510;2024-03-08T00:56:16;4.30;1.00
1592;DHT22;789;51.612;7.510;2024-03-08T00:58:43;4.30;1.00
1592;DHT22;789;51.612;7.510;2024-03-08T01:01:10;4.30;1.00
1592;DHT22;789;51.612;7.510;2024-03-08T01:03:36;4.30;1.00
1592;DHT22;789;51.612;7.510;2024-03-08T01:06:05;4.20;1.00
1592;DHT22;789;51.612;7.510;2024-03-08T01:08:31;4.20;1.00
1592;DHT22;789;51.612;7.510;2024-03-08T01:10:58;4.20;1.00
1592;DHT22;789;51.612;7.510;2024-03-08T01:13:25;4.20;1.00
1592;DHT22;789;51.612;7.510;2024-03-08T01:15:52;4.20;1.00
1592;DHT22;789;51.612;7.510;2024-03-08T01:18:19;4.20;1.00
1592;DHT22;789;51.612;7.510;2024-03-08T01:20:47;4.10;1.00
1592;DHT22;789;51.612;7.510;2024-03-08T01:23:15;4.10;1.00
1592;DHT22;789;51.612;7.510;2024-03-08T01:25:42;4.10;1.00
1592;DHT22;789;51.612;7.510;2024-03-08T01:28:09;4.00;1.00
1592;DHT22;789;51.612;7.510;2024-03-08T01:30:36;4.00;1.00
1592;DHT22;789;51.612;7.510;2024-03-08T01:33:04;3.90;1.00
1592;DHT22;789;51.612;7.510;2024-03-08T01:35:31;3.90;1.00
1592;DHT22;789;51.612;7.510;2024-03-08T01:37:57;3.90;1.00
1592;DHT22;789;51.612;7.510;2024-03-08T01:40:26;3.90;1.00
1592;DHT22;789;51.612;7.510;2024-03-08T01:42:52;3.80;1.00
1592;DHT22;789;51.612;7.510;2024-03-08T01:45:19;3.80;1.00
1592;DHT22;789;51.612;7.510;2024-03-08T01:47:46;3.80;1.00
1592;DHT22;789;51.612;7.510;2024-03-08T01:50:13;3.70;1.00
1592;DHT22;789;51.612;7.510;2024-03-08T01:52:42;3.70;1.00
1592;DHT22;789;51.612;7.510;2024-03-08T01:55:09;3.70;1.00
1592;DHT22;789;51.612;7.510;2024-03-08T01:57:38;3.70;1.00
1592;DHT22;789;51.612;7.510;2024-03-08T02:00:06;3.70;1.00
1592;DHT22;789;51.612;7.510;2024-03-08T02:02:36;3.70;1.00
1592;DHT22;789;51.612;7.510;2024-03-08T02:05:05;3.70;1.00
1592;DHT22;789;51.612;7.510;2024-03-08T02:07:32;3.70;1.00
1592;DHT22;789;51.612;7.510;2024-03-08T02:10:00;3.70;1.00
1592;DHT22;789;51.612;7.510;2024-03-08T02:12:26;3.70;1.00
1592;DHT22;789;51.612;7.510;2024-03-08T02:14:55;3.70;1.00
1592;DHT22;789;51.612;7.510;2024-03-08T02:17:22;3.70;1.00
1592;DHT22;789;51.612;7.510;2024-03-08T02:19:48;3.70;1.00
1592;DHT22;789;51.612;7.510;2024-03-08T02:22:17;3.70;1.00
1592;DHT22;789;51.612;7.510;2024-03-08T02:24:45;3.70;1.00
1592;DHT22;789;51.612;7.510;2024-03-08T02:27:12;3.80;1.00
1592;DHT22;789;51.612;7.510;2024-03-08T02:29:39;3.80;1.00
1592;DHT22;789;51.612;7.510;2024-03-08T02:32:07;3.80;1.00
1592;DHT22;789;51.612;7.510;2024-03-08T02:34:34;3.70;1.00
1592;DHT22;789;51.612;7.510;2024-03-08T02:37:01;3.70;1.00
1592;DHT22;789;51.612;7.510;2024-03-08T02:39:30;3.70;1.00
1592;DHT22;789;51.612;7.510;2024-03-08T02:41:57;3.70;1.00
1592;DHT22;789;51.612;7.510;2024-03-08T02:44:24;3.70;1.00
1592;DHT22;789;51.612;7.510;2024-03-08T02:46:51;3.60;1.00
1592;DHT22;789;51.612;7.510;2024-03-08T02:49:20;3.60;1.00
1592;DHT22;789;51.612;7.510;2024-03-08T02:51:46;3.60;1.00
1592;DHT22;789;51.612;7.510;2024-03-08T02:54:13;3.80;1.00
1592;DHT22;789;51.612;7.510;2024-03-08T02:56:41;3.70;1.00
1592;DHT22;789;51.612;7.510;2024-03-08T02:59:08;3.60;1.00
1592;DHT22;789;51.612;7.510;2024-03-08T03:01:34;3.60;1.00
1592;DHT22;789;51.612;7.510;2024-03-08T03:04:02;3.60;1.00
1592;DHT22;789;51.612;7.510;2024-03-08T03:06:28;3.60;1.00
1592;DHT22;789;51.612;7.510;2024-03-08T03:08:55;3.60;1.00
1592;DHT22;789;51.612;7.510;2024-03-08T03:11:22;3.60;1.00
1592;DHT22;789;51.612;7.510;2024-03-08T03:13:51;3.60;1.00
1592;DHT22;789;51.612;7.510;2024-03-08T03:16:18;3.60;1.00
1592;DHT22;789;51.612;7.510;2024-03-08T03:18:45;3.60;1.00
1592;DHT22;789;51.612;7.510;2024-03-08T03:21:12;3.60;1.00
1592;DHT22;789;51.612;7.510;2024-03-08T03:23:39;3.60;1.00
1592;DHT22;789;51.612;7.510;2024-03-08T03:26:07;3.60;1.00
1592;DHT22;789;51.612;7.510;2024-03-08T03:28:36;3.60;1.00
1592;DHT22;789;51.612;7.510;2024-03-08T03:31:06;3.60;1.00
1592;DHT22;789;51.612;7.510;2024-03-08T03:33:32;3.60;1.00
1592;DHT22;789;51.612;7.510;2024-03-08T03:36:02;3.50;1.00
1592;DHT22;789;51.612;7.510;2024-03-08T03:38:30;3.50;1.00
1592;DHT22;789;51.612;7.510;2024-03-08T03:40:57;3.50;1.00
1592;DHT22;789;51.612;7.510;2024-03-08T03:43:29;3.40;1.00
1592;DHT22;789;51.612;7.510;2024-03-08T03:45:57;3.40;1.00
1592;DHT22;789;51.612;7.510;2024-03-08T03:48:25;3.40;1.00
1592;DHT22;789;51.612;7.510;2024-03-08T03:50:51;3.40;1.00
1592;DHT22;789;51.612;7.510;2024-03-08T03:53:18;3.40;1.00
1592;DHT22;789;51.612;7.510;2024-03-08T03:55:45;3.40;1.00
1592;DHT22;789;51.612;7.510;2024-03-08T03:58:12;3.40;1.00
1592;DHT22;789;51.612;7.510;2024-03-08T04:00:39;3.40;1.00
1592;DHT22;789;51.612;7.510;2024-03-08T04:03:06;3.30;1.00
1592;DHT22;789;51.612;7.510;2024-03-08T04:05:35;3.30;1.00
1592;DHT22;789;51.612;7.510;2024-03-08T04:08:02;3.30;1.00
1592;DHT22;789;51.612;7.510;2024-03-08T04:10:29;3.40;1.00
1592;DHT22;789;51.612;7.510;2024-03-08T04:12:55;3.30;1.00
1592;DHT22;789;51.612;7.510;2024-03-08T04:15:22;3.30;1.00
1592;DHT22;789;51.612;7.510;2024-03-08T04:17:49;3.40;1.00
1592;DHT22;789;51.612;7.510;2024-03-08T04:20:16;3.40;1.00
1592;DHT22;789;51.612;7.510;2024-03-08T04:22:44;3.30;1.00
1592;DHT22;789;51.612;7.510;2024-03-08T04:25:12;3.40;1.00
1592;DHT22;789;51.612;7.510;2024-03-08T04:27:39;3.30;1.00
1592;DHT22;789;51.612;7.510;2024-03-08T04:30:07;3.30;1.00
1592;DHT22;789;51.612;7.510;2024-03-08T04:32:33;3.30;1.00
1592;DHT22;789;51.612;7.510;2024-03-08T04:35:00;3.30;1.00
1592;DHT22;789;51.612;7.510;2024-03-08T04:37:28;3.30;1.00
1592;DHT22;789;51.612;7.510;2024-03-08T04:39:57;3.30;1.00
1592;DHT22;789;51.612;7.510;2024-03-08T04:42:24;3.30;1.00
1592;DHT22;789;51.612;7.510;2024-03-08T04:44:52;3.30;1.00
1592;DHT22;789;51.612;7.510;2024-03-08T04:47:19;3.20;1.00
1592;DHT22;789;51.612;7.510;2024-03-08T04:49:46;3.20;1.00
1592;DHT22;789;51.612;7.510;2024-03-08T04:52:12;3.20;1.00
1592;DHT22;789;51.612;7.510;2024-03-08T04:54:39;3.20;1.00
1592;DHT22;789;51.612;7.510;2024-03-08T04:57:07;3.10;1.00
1592;DHT22;789;51.612;7.510;2024-03-08T04:59:34;3.10;1.00
1592;DHT22;789;51.612;7.510;2024-03-08T05:02:01;3.10;1.00
1592;DHT22;789;51.612;7.510;2024-03-08T05:04:28;3.10;1.00
1592;DHT22;789;51.612;7.510;2024-03-08T05:06:55;3.00;1.00
1592;DHT22;789;51.612;7.510;2024-03-08T05:09:22;3.00;1.00
1592;DHT22;789;51.612;7.510;2024-03-08T05:11:49;3.00;1.00
1592;DHT22;789;51.612;7.510;2024-03-08T05:14:17;3.00;1.00
1592;DHT22;789;51.612;7.510;2024-03-08T05:16:46;3.00;1.00
1592;DHT22;789;51.612;7.510;2024-03-08T05:19:14;3.00;1.00
1592;DHT22;789;51.612;7.510;2024-03-08T05:21:42;2.90;1.00
1592;DHT22;789;51.612;7.510;2024-03-08T05:24:09;2.90;1.00
1592;DHT22;789;51.612;7.510;2024-03-08T05:26:36;2.80;1.00
1592;DHT22;789;51.612;7.510;2024-03-08T05:29:04;2.80;1.00
1592;DHT22;789;51.612;7.510;2024-03-08T05:31:36;2.80;1.00
1592;DHT22;789;51.612;7.510;2024-03-08T05:34:05;2.80;1.00
1592;DHT22;789;51.612;7.510;2024-03-08T05:36:35;2.80;1.00
1592;DHT22;789;51.612;7.510;2024-03-08T05:39:03;2.80;1.00
1592;DHT22;789;51.612;7.510;2024-03-08T05:41:31;2.80;1.00
1592;DHT22;789;51.612;7.510;2024-03-08T05:43:58;2.80;1.00
1592;DHT22;789;51.612;7.510;2024-03-08T05:46:25;2.80;1.00
1592;DHT22;789;51.612;7.510;2024-03-08T05:48:53;2.90;1.00
1592;DHT22;789;51.612;7.510;2024-03-08T05:51:20;2.80;1.00
1592;DHT22;789;51.612;7.510;2024-03-08T05:53:47;2.80;1.00
1592;DHT22;789;51.612;7.510;2024-03-08T05:56:14;2.80;1.00
1592;DHT22;789;51.612;7.510;2024-03-08T05:58:41;2.90;1.00
1592;DHT22;789;51.612;7.510;2024-03-08T06:01:08;2.80;1.00
1592;DHT22;789;51.612;7.510;2024-03-08T06:03:38;2.80;1.00
1592;DHT22;789;51.612;7.510;2024-03-08T06:06:11;2.80;1.00
1592;DHT22;789;51.612;7.510;2024-03-08T06:08:38;2.80;1.00
1592;DHT22;789;51.612;7.510;2024-03-08T06:11:05;2.80;1.00
1592;DHT22;789;51.612;7.510;2024-03-08T06:13:32;2.80;1.00
1592;DHT22;789;51.612;7.510;2024-03-08T06:15:59;2.80;1.00
1592;DHT22;789;51.612;7.510;2024-03-08T06:18:26;2.80;1.00
1592;DHT22;789;51.612;7.510;2024-03-08T06:20:53;2.80;1.00
1592;DHT22;789;51.612;7.510;2024-03-08T06:23:23;2.80;1.00
1592;DHT22;789;51.612;7.510;2024-03-08T06:25:49;2.90;1.00
1592;DHT22;789;51.612;7.510;2024-03-08T06:28:16;2.90;1.00
1592;DHT22;789;51.612;7.510;2024-03-08T06:30:43;3.00;1.00
1592;DHT22;789;51.612;7.510;2024-03-08T06:33:10;3.00;1.00
1592;DHT22;789;51.612;7.510;2024-03-08T06:35:37;3.00;1.00
1592;DHT22;789;51.612;7.510;2024-03-08T06:38:04;3.00;1.00
1592;DHT22;789;51.612;7.510;2024-03-08T06:40:32;3.10;1.00
1592;DHT22;789;51.612;7.510;2024-03-08T06:42:59;3.30;1.00
1592;DHT22;789;51.612;7.510;2024-03-08T06:45:26;3.30;1.00
1592;DHT22;789;51.612;7.510;2024-03-08T06:47:55;3.40;1.00
1592;DHT22;789;51.612;7.510;2024-03-08T06:50:21;3.50;1.00
1592;DHT22;789;51.612;7.510;2024-03-08T06:52:51;3.70;1.00
1592;DHT22;789;51.612;7.510;2024-03-08T06:55:19;3.80;1.00
1592;DHT22;789;51.612;7.510;2024-03-08T06:57:50;4.00;1.00
1592;DHT22;789;51.612;7.510;2024-03-08T07:00:17;4.10;1.00
1592;DHT22;789;51.612;7.510;2024-03-08T07:02:46;4.20;1.00
1592;DHT22;789;51.612;7.510;2024-03-08T07:05:14;4.30;1.00
1592;DHT22;789;51.612;7.510;2024-03-08T07:07:42;4.30;1.00
1592;DHT22;789;51.612;7.510;2024-03-08T07:10:09;4.50;1.00
1592;DHT22;789;51.612;7.510;2024-03-08T07:12:37;4.70;1.00
1592;DHT22;789;51.612;7.510;2024-03-08T07:15:08;4.90;1.00
1592;DHT22;789;51.612;7.510;2024-03-08T07:17:38;5.20;1.00
1592;DHT22;789;51.612;7.510;2024-03-08T07:20:06;5.60;1.00
1592;DHT22;789;51.612;7.510;2024-03-08T07:22:37;6.00;1.00
1592;DHT22;789;51.612;7.510;2024-03-08T07:25:05;6.50;1.00
1592;DHT22;789;51.612;7.510;2024-03-08T07:27:46;7.10;1.00
1592;DHT22;789;51.612;7.510;2024-03-08T07:30:15;7.80;1.00
1592;DHT22;789;51.612;7.510;2024-03-08T07:33:04;8.20;1.00
1592;DHT22;789;51.612;7.510;2024-03-08T07:35:30;8.20;1.00
1592;DHT22;789;51.612;7.510;2024-03-08T07:37:57;8.30;1.00
1592;DHT22;789;51.612;7.510;2024-03-08T07:40:25;8.80;1.00
1592;DHT22;789;51.612;7.510;2024-03-08T07:42:52;9.40;1.00
1592;DHT22;789;51.612;7.510;2024-03-08T07:45:21;9.90;1.00
1592;DHT22;789;51.612;7.510;2024-03-08T07:47:48;10.60;1.00
1592;DHT22;789;51.612;7.510;2024-03-08T07:50:17;11.10;1.00
1592;DHT22;789;51.612;7.510;2024-03-08T07:52:45;11.50;1.00
1592;DHT22;789;51.612;7.510;2024-03-08T07:55:11;12.00;1.00
1592;DHT22;789;51.612;7.510;2024-03-08T07:57:38;12.30;1.00
1592;DHT22;789;51.612;7.510;2024-03-08T08:00:06;12.60;1.00
1592;DHT22;789;51.612;7.510;2024-03-08T08:02:35;12.70;1.00
1592;DHT22;789;51.612;7.510;2024-03-08T08:05:03;13.00;1.00
1592;DHT22;789;51.612;7.510;2024-03-08T08:07:31;13.30;1.00
1592;DHT22;789;51.612;7.510;2024-03-08T08:09:58;13.70;1.00
1592;DHT22;789;51.612;7.510;2024-03-08T08:12:25;14.00;1.00
1592;DHT22;789;51.612;7.510;2024-03-08T08:14:53;14.10;1.00
1592;DHT22;789;51.612;7.510;2024-03-08T08:17:22;14.20;1.00
1592;DHT22;789;51.612;7.510;2024-03-08T08:19:50;14.40;1.00
1592;DHT22;789;51.612;7.510;2024-03-08T08:22:19;14.40;1.00
1592;DHT22;789;51.612;7.510;2024-03-08T08:24:46;14.10;1.00
1592;DHT22;789;51.612;7.510;2024-03-08T08:27:13;14.00;1.00
1592;DHT22;789;51.612;7.510;2024-03-08T08:29:39;14.00;1.00
1592;DHT22;789;51.612;7.510;2024-03-08T08:32:06;14.00;1.00
1592;DHT22;789;51.612;7.510;2024-03-08T08:34:33;14.30;1.00
1592;DHT22;789;51.612;7.510;2024-03-08T08:37:01;14.60;1.00
1592;DHT22;789;51.612;7.510;2024-03-08T08:39:30;15.30;1.00
1592;DHT22;789;51.612;7.510;2024-03-08T08:41:58;16.30;1.00
1592;DHT22;789;51.612;7.510;2024-03-08T08:44:25;16.70;1.00
1592;DHT22;789;51.612;7.510;2024-03-08T08:46:53;16.60;1.00
1592;DHT22;789;51.612;7.510;2024-03-08T08:49:20;16.50;1.00
1592;DHT22;789;51.612;7.510;2024-03-08T08:51:49;16.10;1.00
1592;DHT22;789;51.612;7.510;2024-03-08T08:54:17;15.90;1.00
1592;DHT22;789;51.612;7.510;2024-03-08T08:56:58;16.00;1.00
1592;DHT22;789;51.612;7.510;2024-03-08T08:59:26;16.20;1.00
1592;DHT22;789;51.612;7.510;2024-03-08T09:01:53;16.50;1.00
1592;DHT22;789;51.612;7.510;2024-03-08T09:04:20;16.70;1.00
1592;DHT22;789;51.612;7.510;2024-03-08T09:06:48;17.20;1.00
1592;DHT22;789;51.612;7.510;2024-03-08T09:09:17;17.60;1.00
1592;DHT22;789;51.612;7.510;2024-03-08T09:11:44;17.90;1.00
1592;DHT22;789;51.612;7.510;2024-03-08T09:14:11;18.30;1.00
1592;DHT22;789;51.612;7.510;2024-03-08T09:16:38;19.00;1.00
1592;DHT22;789;51.612;7.510;2024-03-08T09:19:05;19.30;1.00
1592;DHT22;789;51.612;7.510;2024-03-08T09:21:33;19.50;1.00
1592;DHT22;789;51.612;7.510;2024-03-08T09:24:05;19.20;1.00
1592;DHT22;789;51.612;7.510;2024-03-08T09:26:33;19.20;1.00
1592;DHT22;789;51.612;7.510;2024-03-08T09:29:00;19.70;1.00
1592;DHT22;789;51.612;7.510;2024-03-08T09:31:27;19.90;1.00
1592;DHT22;789;51.612;7.510;2024-03-08T09:33:54;20.10;1.00
1592;DHT22;789;51.612;7.510;2024-03-08T09:36:20;20.00;1.00
1592;DHT22;789;51.612;7.510;2024-03-08T09:38:47;19.80;1.00
1592;DHT22;789;51.612;7.510;2024-03-08T09:41:15;19.30;1.00
1592;DHT22;789;51.612;7.510;2024-03-08T09:43:45;19.00;1.00
1592;DHT22;789;51.612;7.510;2024-03-08T09:46:12;19.40;1.00
1592;DHT22;789;51.612;7.510;2024-03-08T09:48:41;20.20;1.00
1592;DHT22;789;51.612;7.510;2024-03-08T09:51:07;20.60;1.00
1592;DHT22;789;51.612;7.510;2024-03-08T09:53:39;20.60;1.00
1592;DHT22;789;51.612;7.510;2024-03-08T09:56:06;20.70;1.00
1592;DHT22;789;51.612;7.510;2024-03-08T09:58:34;20.40;1.00
1592;DHT22;789;51.612;7.510;2024-03-08T10:01:20;19.80;1.00
1592;DHT22;789;51.612;7.510;2024-03-08T10:03:48;19.70;1.00
1592;DHT22;789;51.612;7.510;2024-03-08T10:06:15;19.90;1.00
1592;DHT22;789;51.612;7.510;2024-03-08T10:08:42;19.90;1.00
1592;DHT22;789;51.612;7.510;2024-03-08T10:11:09;19.90;1.00
1592;DHT22;789;51.612;7.510;2024-03-08T10:13:37;20.50;1.00
1592;DHT22;789;51.612;7.510;2024-03-08T10:16:06;20.40;1.00
1592;DHT22;789;51.612;7.510;2024-03-08T10:18:34;20.30;1.00
1592;DHT22;789;51.612;7.510;2024-03-08T10:21:03;20.10;1.00
1592;DHT22;789;51.612;7.510;2024-03-08T10:23:31;20.60;1.00
1592;DHT22;789;51.612;7.510;2024-03-08T10:26:09;21.10;1.00
1592;DHT22;789;51.612;7.510;2024-03-08T10:28:36;20.80;1.00
1592;DHT22;789;51.612;7.510;2024-03-08T10:31:03;20.60;1.00
1592;DHT22;789;51.612;7.510;2024-03-08T10:33:31;20.80;1.00
1592;DHT22;789;51.612;7.510;2024-03-08T10:36:00;20.70;1.00
1592;DHT22;789;51.612;7.510;2024-03-08T10:38:30;20.30;1.00
1592;DHT22;789;51.612;7.510;2024-03-08T10:40:58;20.10;1.00
1592;DHT22;789;51.612;7.510;2024-03-08T10:43:27;19.90;1.00
1592;DHT22;789;51.612;7.510;2024-03-08T10:46:03;20.20;1.00
1592;DHT22;789;51.612;7.510;2024-03-08T10:48:37;20.50;1.00
1592;DHT22;789;51.612;7.510;2024-03-08T10:51:11;20.80;1.00
1592;DHT22;789;51.612;7.510;2024-03-08T10:53:39;21.00;1.00
1592;DHT22;789;51.612;7.510;2024-03-08T10:56:07;20.60;1.00
1592;DHT22;789;51.612;7.510;2024-03-08T10:58:36;20.30;1.00
1592;DHT22;789;51.612;7.510;2024-03-08T11:01:04;20.30;1.00
1592;DHT22;789;51.612;7.510;2024-03-08T11:03:44;20.00;1.00
1592;DHT22;789;51.612;7.510;2024-03-08T11:06:16;19.90;1.00
1592;DHT22;789;51.612;7.510;2024-03-08T11:08:44;20.30;1.00
1592;DHT22;789;51.612;7.510;2024-03-08T11:11:24;20.50;1.00
1592;DHT22;789;51.612;7.510;2024-03-08T11:13:56;21.10;1.00
1592;DHT22;789;51.612;7.510;2024-03-08T11:16:38;21.00;1.00
1592;DHT22;789;51.612;7.510;2024-03-08T11:19:24;20.90;1.00
1592;DHT22;789;51.612;7.510;2024-03-08T11:22:01;21.10;1.00
1592;DHT22;789;51.612;7.510;2024-03-08T11:24:37;21.10;1.00
1592;DHT22;789;51.612;7.510;2024-03-08T11:27:06;21.00;1.00
1592;DHT22;789;51.612;7.510;2024-03-08T11:29:36;21.00;1.00
1592;DHT22;789;51.612;7.510;2024-03-08T11:32:09;21.30;1.00
1592;DHT22;789;51.612;7.510;2024-03-08T11:34:36;21.50;1.00
1592;DHT22;789;51.612;7.510;2024-03-08T11:37:11;21.50;1.00
1592;DHT22;789;51.612;7.510;2024-03-08T11:39:39;21.40;1.00
1592;DHT22;789;51.612;7.510;2024-03-08T11:42:06;21.60;1.00
1592;DHT22;789;51.612;7.510;2024-03-08T11:44:33;21.20;1.00
1592;DHT22;789;51.612;7.510;2024-03-08T11:47:01;21.10;1.00
1592;DHT22;789;51.612;7.510;2024-03-08T11:49:31;20.80;1.00
1592;DHT22;789;51.612;7.510;2024-03-08T11:51:58;20.70;1.00
1592;DHT22;789;51.612;7.510;2024-03-08T11:54:27;20.50;1.00
1592;DHT22;789;51.612;7.510;2024-03-08T11:56:55;20.70;1.00
1592;DHT22;789;51.612;7.510;2024-03-08T11:59:26;20.60;1.00
1592;DHT22;789;51.612;7.510;2024-03-08T12:02:04;20.40;1.00
1592;DHT22;789;51.612;7.510;2024-03-08T12:04:31;20.40;1.00
1592;DHT22;789;51.612;7.510;2024-03-08T12:07:02;20.60;1.00
1592;DHT22;789;51.612;7.510;2024-03-08T12:09:38;20.20;1.00
1592;DHT22;789;51.612;7.510;2024-03-08T12:12:07;19.90;1.00
1592;DHT22;789;51.612;7.510;2024-03-08T12:14:34;19.90;1.00
1592;DHT22;789;51.612;7.510;2024-03-08T12:17:03;19.40;1.00
1592;DHT22;789;51.612;7.510;2024-03-08T12:19:31;19.20;1.00
1592;DHT22;789;51.612;7.510;2024-03-08T12:22:07;18.90;1.00
1592;DHT22;789;51.612;7.510;2024-03-08T12:24:35;18.60;1.00
1592;DHT22;789;51.612;7.510;2024-03-08T12:27:17;18.40;1.00
1592;DHT22;789;51.612;7.510;2024-03-08T12:29:47;18.40;1.00
1592;DHT22;789;51.612;7.510;2024-03-08T12:32:15;18.10;1.00
1592;DHT22;789;51.612;7.510;2024-03-08T12:34:43;18.10;1.00
1592;DHT22;789;51.612;7.510;2024-03-08T12:37:12;17.90;1.00
1592;DHT22;789;51.612;7.510;2024-03-08T12:39:41;17.60;1.00
1592;DHT22;789;51.612;7.510;2024-03-08T12:42:09;16.70;1.00
1592;DHT22;789;51.612;7.510;2024-03-08T12:44:36;15.90;1.00
1592;DHT22;789;51.612;7.510;2024-03-08T12:47:08;15.00;1.00
1592;DHT22;789;51.612;7.510;2024-03-08T12:49:35;14.20;1.00
1592;DHT22;789;51.612;7.510;2024-03-08T12:52:03;13.60;1.00
1592;DHT22;789;51.612;7.510;2024-03-08T12:54:29;13.10;1.00
1592;DHT22;789;51.612;7.510;2024-03-08T12:56:58;12.70;1.00
1592;DHT22;789;51.612;7.510;2024-03-08T12:59:24;12.40;1.00
1592;DHT22;789;51.612;7.510;2024-03-08T13:01:52;12.20;1.00
1592;DHT22;789;51.612;7.510;2024-03-08T13:04:20;12.00;1.00
1592;DHT22;789;51.612;7.510;2024-03-08T13:06:47;11.80;1.00
1592;DHT22;789;51.612;7.510;2024-03-08T13:09:15;11.70;1.00
1592;DHT22;789;51.612;7.510;2024-03-08T13:11:45;11.60;1.00
1592;DHT22;789;51.612;7.510;2024-03-08T13:14:13;11.50;1.00
1592;DHT22;789;51.612;7.510;2024-03-08T13:16:40;11.50;1.00
1592;DHT22;789;51.612;7.510;2024-03-08T13:19:09;11.50;1.00
1592;DHT22;789;51.612;7.510;2024-03-08T13:21:37;11.50;1.00
1592;DHT22;789;51.612;7.510;2024-03-08T13:24:05;11.50;1.00
1592;DHT22;789;51.612;7.510;2024-03-08T13:26:32;11.60;1.00
1592;DHT22;789;51.612;7.510;2024-03-08T13:28:59;11.50;1.00
1592;DHT22;789;51.612;7.510;2024-03-08T13:31:32;11.50;1.00
1592;DHT22;789;51.612;7.510;2024-03-08T13:33:59;11.50;1.00
1592;DHT22;789;51.612;7.510;2024-03-08T13:36:26;11.40;1.00
1592;DHT22;789;51.612;7.510;2024-03-08T13:38:57;11.50;1.00
1592;DHT22;789;51.612;7.510;2024-03-08T13:41:24;11.40;1.00
1592;DHT22;789;51.612;7.510;2024-03-08T13:43:51;11.40;1.00
1592;DHT22;789;51.612;7.510;2024-03-08T13:46:18;11.40;1.00
1592;DHT22;789;51.612;7.510;2024-03-08T13:48:47;11.30;1.00
1592;DHT22;789;51.612;7.510;2024-03-08T13:51:16;11.20;1.00
1592;DHT22;789;51.612;7.510;2024-03-08T13:53:43;11.20;1.00
1592;DHT22;789;51.612;7.510;2024-03-08T13:56:09;11.20;1.00
1592;DHT22;789;51.612;7.510;2024-03-08T13:58:37;11.20;1.00
1592;DHT22;789;51.612;7.510;2024-03-08T14:01:05;11.10;1.00
1592;DHT22;789;51.612;7.510;2024-03-08T14:03:37;11.10;1.00
1592;DHT22;789;51.612;7.510;2024-03-08T14:06:05;11.10;1.00
1592;DHT22;789;51.612;7.510;2024-03-08T14:08:32;11.10;1.00
1592;DHT22;789;51.612;7.510;2024-03-08T14:10:59;11.10;1.00
1592;DHT22;789;51.612;7.510;2024-03-08T14:13:36;11.10;1.00
1592;DHT22;789;51.612;7.510;2024-03-08T14:16:06;11.10;1.00
1592;DHT22;789;51.612;7.510;2024-03-08T14:18:34;11.10;1.00
1592;DHT22;789;51.612;7.510;2024-03-08T14:21:02;11.20;1.00
1592;DHT22;789;51.612;7.510;2024-03-08T14:23:34;11.10;1.00
1592;DHT22;789;51.612;7.510;2024-03-08T14:26:01;11.00;1.00
1592;DHT22;789;51.612;7.510;2024-03-08T14:28:28;11.00;1.00
1592;DHT22;789;51.612;7.510;2024-03-08T14:30:55;11.00;1.00
1592;DHT22;789;51.612;7.510;2024-03-08T14:33:23;11.10;1.00
1592;DHT22;789;51.612;7.510;2024-03-08T14:35:51;11.00;1.00
1592;DHT22;789;51.612;7.510;2024-03-08T14:38:17;11.00;1.00
1592;DHT22;789;51.612;7.510;2024-03-08T14:40:47;11.10;1.00
1592;DHT22;789;51.612;7.510;2024-03-08T14:43:14;11.00;1.00
1592;DHT22;789;51.612;7.510;2024-03-08T14:45:42;11.00;1.00
1592;DHT22;789;51.612;7.510;2024-03-08T14:48:09;11.00;1.00
1592;DHT22;789;51.612;7.510;2024-03-08T14:50:37;11.00;1.00
1592;DHT22;789;51.612;7.510;2024-03-08T14:53:04;11.00;1.00
1592;DHT22;789;51.612;7.510;2024-03-08T14:55:32;11.00;1.00
1592;DHT22;789;51.612;7.510;2024-03-08T14:58:01;11.00;1.00
1592;DHT22;789;51.612;7.510;2024-03-08T15:00:29;10.90;1.00
1592;DHT22;789;51.612;7.510;2024-03-08T15:03:00;10.80;1.00
1592;DHT22;789;51.612;7.510;2024-03-08T15:05:27;10.80;1.00
1592;DHT22;789;51.612;7.510;2024-03-08T15:07:57;10.70;1.00
1592;DHT22;789;51.612;7.510;2024-03-08T15:10:26;10.70;1.00
1592;DHT22;789;51.612;7.510;2024-03-08T15:12:54;10.60;1.00
1592;DHT22;789;51.612;7.510;2024-03-08T15:15:23;10.60;1.00
1592;DHT22;789;51.612;7.510;2024-03-08T15:17:50;10.60;1.00
1592;DHT22;789;51.612;7.510;2024-03-08T15:20:19;10.70;1.00
1592;DHT22;789;51.612;7.510;2024-03-08T15:22:51;10.70;1.00
1592;DHT22;789;51.612;7.510;2024-03-08T15:25:20;10.80;1.00
1592;DHT22;789;51.612;7.510;2024-03-08T15:27:52;10.70;1.00
1592;DHT22;789;51.612;7.510;2024-03-08T15:30:19;10.70;1.00
1592;DHT22;789;51.612;7.510;2024-03-08T15:32:53;10.80;1.00
1592;DHT22;789;51.612;7.510;2024-03-08T15:35:22;10.80;1.00
1592;DHT22;789;51.612;7.510;2024-03-08T15:37:51;10.90;1.00
1592;DHT22;789;51.612;7.510;2024-03-08T15:40:18;10.80;1.00
1592;DHT22;789;51.612;7.510;2024-03-08T15:42:48;10.80;1.00
1592;DHT22;789;51.612;7.510;2024-03-08T15:45:16;10.70;1.00
1592;DHT22;789;51.612;7.510;2024-03-08T15:47:43;10.90;1.00
1592;DHT22;789;51.612;7.510;2024-03-08T15:50:14;10.70;1.00
1592;DHT22;789;51.612;7.510;2024-03-08T15:52:43;10.70;1.00
1592;DHT22;789;51.612;7.510;2024-03-08T15:55:14;10.70;1.00
1592;DHT22;789;51.612;7.510;2024-03-08T15:57:45;10.70;1.00
1592;DHT22;789;51.612;7.510;2024-03-08T16:00:14;10.90;1.00
1592;DHT22;789;51.612;7.510;2024-03-08T16:02:51;10.70;1.00
1592;DHT22;789;51.612;7.510;2024-03-08T16:05:20;10.70;1.00
1592;DHT22;789;51.612;7.510;2024-03-08T16:07:47;10.70;1.00
1592;DHT22;789;51.612;7.510;2024-03-08T16:10:14;10.70;1.00
1592;DHT22;789;51.612;7.510;2024-03-08T16:12:41;10.70;1.00
1592;DHT22;789;51.612;7.510;2024-03-08T16:15:09;10.60;1.00
1592;DHT22;789;51.612;7.510;2024-03-08T16:17:38;10.60;1.00
1592;DHT22;789;51.612;7.510;2024-03-08T16:20:06;10.60;1.00
1592;DHT22;789;51.612;7.510;2024-03-08T16:22:39;10.70;1.00
1592;DHT22;789;51.612;7.510;2024-03-08T16:25:09;10.60;1.00
1592;DHT22;789;51.612;7.510;2024-03-08T16:27:38;10.60;1.00
1592;DHT22;789;51.612;7.510;2024-03-08T16:30:13;10.60;1.00
1592;DHT22;789;51.612;7.510;2024-03-08T16:32:42;10.50;1.00
1592;DHT22;789;51.612;7.510;2024-03-08T16:35:10;10.40;1.00
1592;DHT22;789;51.612;7.510;2024-03-08T16:37:38;10.40;1.00
1592;DHT22;789;51.612;7.510;2024-03-08T16:40:09;10.40;1.00
1592;DHT22;789;51.612;7.510;2024-03-08T16:42:44;10.40;1.00
1592;DHT22;789;51.612;7.510;2024-03-08T16:45:11;10.40;1.00
1592;DHT22;789;51.612;7.510;2024-03-08T16:47:40;10.40;1.00
1592;DHT22;789;51.612;7.510;2024-03-08T16:50:08;10.40;1.00